Time;durP1;ratioP1;P1;durP2;ratioP2;P2;SDS_P1;SDS_P2;PMS_P1;PMS_P2;Temp;Humidity;BMP_temperature;BMP_pressure;BME280_temperature;BME280_humidity;BME280_pressure;Samples;Min_cycle;Max_cycle;Signal;HPM_P1;HPM_P2
2022/01/16 00:00:03;;;;;;;35.98;25.25;;;22.60;83.40;;;;;;1902318;74;21755;-82
2022/01/16 00:05:06;;;;;;;36.45;25.60;;;22.50;83.50;;;;;;1913063;74;21257;-82
2022/01/16 00:07:37;;;;;;;37.13;24.82;;;22.50;82.00;;;;;;1915363;74;21195;-81
2022/01/16 00:10:08;;;;;;;41.83;25.68;;;22.50;83.90;;;;;;1905778;74;21544;-81
2022/01/16 00:12:38;;;;;;;36.75;26.02;;;22.50;83.40;;;;;;1913444;74;21115;-81
2022/01/16 00:15:10;;;;;;;41.18;27.07;;;22.50;83.00;;;;;;1907919;74;21119;-83
2022/01/16 00:17:52;;;;;;;42.58;27.98;;;22.50;83.10;;;;;;1911220;74;21604;-82
2022/01/16 00:20:12;;;;;;;46.08;28.92;;;22.50;83.60;;;;;;1901154;74;21218;-81
2022/01/16 00:22:45;;;;;;;39.98;26.37;;;22.50;83.80;;;;;;1907139;74;21569;-83
2022/01/16 00:25:16;;;;;;;39.67;25.25;;;22.60;84.10;;;;;;1901146;74;21171;-82
2022/01/16 00:27:47;;;;;;;39.98;26.50;;;22.50;83.20;;;;;;1902288;74;21207;-81
2022/01/16 00:30:19;;;;;;;42.93;26.90;;;22.50;83.50;;;;;;1869671;75;21140;-82
2022/01/16 00:32:50;;;;;;;40.43;26.82;;;22.50;83.80;;;;;;1907865;74;21218;-81
2022/01/16 00:35:21;;;;;;;40.30;26.42;;;22.50;84.30;;;;;;1905232;74;21108;-82
2022/01/16 00:37:53;;;;;;;39.20;26.70;;;22.60;83.70;;;;;;1821786;78;21096;-82
2022/01/16 00:40:23;;;;;;;38.78;27.20;;;22.60;83.70;;;;;;1913955;74;21065;-81
2022/01/16 00:42:55;;;;;;;37.80;25.08;;;22.60;83.30;;;;;;1912001;74;21180;-81
2022/01/16 00:45:29;;;;;;;39.73;25.55;;;22.70;83.60;;;;;;1901044;74;21595;-81
2022/01/16 00:47:59;;;;;;;39.08;26.90;;;22.70;83.20;;;;;;1902569;74;21124;-82
2022/01/16 00:50:30;;;;;;;36.60;24.27;;;22.70;83.20;;;;;;1901037;74;21325;-83
2022/01/16 00:53:02;;;;;;;37.70;25.85;;;22.70;82.60;;;;;;1907297;74;21081;-82
2022/01/16 00:55:32;;;;;;;40.85;27.50;;;22.80;83.00;;;;;;1917828;74;21066;-81
2022/01/16 00:58:03;;;;;;;35.17;25.02;;;22.70;83.40;;;;;;1917994;74;21128;-81
2022/01/16 01:00:34;;;;;;;39.45;25.05;;;22.80;83.40;;;;;;1906522;74;21112;-81
2022/01/16 01:03:06;;;;;;;39.65;26.05;;;22.80;82.30;;;;;;1907935;74;21187;-81
2022/01/16 01:05:37;;;;;;;38.25;25.92;;;22.90;82.90;;;;;;1903295;74;21139;-81
2022/01/16 01:08:08;;;;;;;44.42;26.23;;;22.90;82.80;;;;;;1904255;74;21150;-82
2022/01/16 01:10:42;;;;;;;34.60;24.55;;;22.90;82.70;;;;;;1903802;74;21116;-81
2022/01/16 01:13:21;;;;;;;40.88;24.32;;;22.90;82.40;;;;;;1913157;74;21261;-82
2022/01/16 01:15:49;;;;;;;40.33;24.20;;;22.90;82.50;;;;;;1905907;74;21211;-80
2022/01/16 01:18:17;;;;;;;36.38;24.92;;;22.90;82.40;;;;;;1907041;74;21176;-82
2022/01/16 01:20:50;;;;;;;35.75;23.10;;;23.00;82.20;;;;;;1902058;74;21148;-81
2022/01/16 01:23:21;;;;;;;36.88;23.85;;;23.00;80.10;;;;;;1905069;74;21540;-82
2022/01/16 01:25:52;;;;;;;36.20;22.98;;;23.10;81.60;;;;;;1905428;74;21678;-82
2022/01/16 01:28:23;;;;;;;32.73;22.48;;;23.10;80.60;;;;;;1902541;74;21588;-83
2022/01/16 01:30:55;;;;;;;38.38;23.40;;;23.10;81.60;;;;;;1901393;74;21152;-82
2022/01/16 01:33:27;;;;;;;35.05;21.57;;;23.10;81.50;;;;;;1904917;74;21112;-81
2022/01/16 01:35:57;;;;;;;35.13;22.73;;;23.20;81.30;;;;;;1917821;74;21073;-81
2022/01/16 01:38:28;;;;;;;33.42;21.87;;;23.30;81.10;;;;;;1905456;74;21615;-81
2022/01/16 01:40:59;;;;;;;31.33;20.88;;;23.30;80.70;;;;;;1906082;74;21202;-81
2022/01/16 01:51:08;;;;;;;21.82;15.90;;;23.50;79.50;;;;;;1874878;74;21645;-82
2022/01/16 01:53:40;;;;;;;21.25;15.78;;;23.50;79.10;;;;;;1905399;74;21230;-82
2022/01/16 01:56:13;;;;;;;22.15;14.85;;;23.60;79.20;;;;;;1918704;74;21527;-82
2022/01/16 01:58:44;;;;;;;23.05;15.03;;;23.60;78.80;;;;;;1915153;74;21218;-81
2022/01/16 02:01:15;;;;;;;21.10;15.00;;;23.70;79.80;;;;;;1919606;73;21144;-82
2022/01/16 02:03:48;;;;;;;21.23;14.05;;;23.70;78.50;;;;;;1915313;73;21159;-82
2022/01/16 02:06:21;;;;;;;24.07;14.25;;;23.80;78.30;;;;;;1924479;73;21132;-81
2022/01/16 02:08:54;;;;;;;20.15;13.80;;;23.90;77.90;;;;;;1923638;74;21092;-82
2022/01/16 02:11:28;;;;;;;26.17;14.38;;;24.00;77.90;;;;;;1917256;74;21190;-82
2022/01/16 02:32:01;;;;;;;20.50;14.20;;;24.40;76.60;;;;;;1914914;73;21185;-81
2022/01/16 02:34:32;;;;;;;19.30;14.20;;;24.40;76.60;;;;;;1926027;73;21101;-80
2022/01/16 02:36:59;;;;;;;20.08;14.05;;;24.50;76.90;;;;;;1923078;74;21233;-80
2022/01/16 02:39:28;;;;;;;20.68;14.07;;;24.60;76.50;;;;;;1919891;73;21097;-81
2022/01/16 02:41:59;;;;;;;24.02;14.50;;;24.70;76.40;;;;;;1919109;74;21545;-79
2022/01/16 02:44:35;;;;;;;22.93;14.03;;;24.70;76.10;;;;;;1921674;73;21674;-80
2022/01/16 02:47:03;;;;;;;20.02;13.30;;;24.80;76.00;;;;;;1920515;73;21131;-82
2022/01/16 02:49:35;;;;;;;23.30;14.13;;;24.80;75.70;;;;;;1920221;74;21766;-82
2022/01/16 02:52:08;;;;;;;21.65;13.85;;;24.90;75.50;;;;;;1918819;74;21591;-82
2022/01/16 02:54:41;;;;;;;18.30;13.05;;;25.00;75.30;;;;;;1921333;73;21217;-81
2022/01/16 02:57:14;;;;;;;22.30;14.75;;;25.00;75.30;;;;;;1897169;74;21155;-81
2022/01/16 02:59:48;;;;;;;17.75;13.80;;;25.10;74.90;;;;;;1901031;75;21179;-82
2022/01/16 03:02:20;;;;;;;21.25;13.60;;;25.10;74.90;;;;;;1896513;75;21546;-82
2022/01/16 03:04:52;;;;;;;26.37;14.13;;;25.20;74.90;;;;;;1893675;75;21213;-81
2022/01/16 03:07:23;;;;;;;25.00;14.45;;;25.20;75.00;;;;;;1897405;74;21128;-82
2022/01/16 03:10:25;;;;;;;17.40;13.13;;;25.30;74.70;;;;;;1898294;73;21155;-82
2022/01/16 03:12:29;;;;;;;22.35;13.13;;;25.40;74.40;;;;;;1889244;73;21140;-82
2022/01/16 03:14:59;;;;;;;17.62;13.13;;;25.40;74.30;;;;;;1905692;73;21075;-82
2022/01/16 03:17:51;;;;;;;80.38;17.98;;;25.50;74.00;;;;;;1900795;74;21978;-81
2022/01/16 03:22:35;;;;;;;20.25;12.93;;;25.70;73.30;;;;;;1896557;73;21620;-82
2022/01/16 03:25:06;;;;;;;19.12;12.85;;;25.80;73.00;;;;;;1898658;74;21158;-83
2022/01/16 03:27:38;;;;;;;20.25;13.08;;;25.90;72.90;;;;;;1898345;73;21139;-82
2022/01/16 03:30:12;;;;;;;22.73;13.08;;;25.90;72.40;;;;;;1895598;75;21653;-83
2022/01/16 03:32:43;;;;;;;23.42;13.88;;;26.00;72.50;;;;;;1899589;75;21581;-83
2022/01/16 03:35:13;;;;;;;22.45;12.45;;;26.20;72.00;;;;;;1894039;75;21182;-82
2022/01/16 03:37:44;;;;;;;20.12;14.10;;;26.20;71.80;;;;;;1906751;75;22251;-83
2022/01/16 03:40:15;;;;;;;20.65;13.00;;;26.30;71.80;;;;;;1890359;75;21610;-83
2022/01/16 03:42:46;;;;;;;23.52;12.80;;;26.40;71.60;;;;;;1898275;75;21127;-82
2022/01/16 03:45:17;;;;;;;17.12;11.60;;;26.50;71.10;;;;;;1907150;75;21096;-82
2022/01/16 03:47:47;;;;;;;17.75;11.65;;;26.60;70.50;;;;;;1892614;75;21121;-82
2022/01/16 03:50:18;;;;;;;16.32;11.15;;;26.70;70.50;;;;;;1893332;75;21182;-81
2022/01/16 03:52:49;;;;;;;21.00;12.03;;;26.80;69.10;;;;;;1903045;75;21150;-82
2022/01/16 03:55:20;;;;;;;20.17;12.55;;;26.80;69.20;;;;;;1895622;74;21627;-82
2022/01/16 03:57:51;;;;;;;19.10;11.35;;;26.90;69.20;;;;;;1911902;74;21541;-82
2022/01/16 04:00:22;;;;;;;19.30;11.75;;;27.00;68.60;;;;;;1912990;74;21697;-82
2022/01/16 04:02:53;;;;;;;18.30;11.53;;;27.10;68.40;;;;;;1910321;75;21614;-83
2022/01/16 04:05:24;;;;;;;14.73;11.35;;;27.20;68.40;;;;;;1818953;76;21168;-82
2022/01/16 04:07:55;;;;;;;17.05;10.95;;;27.30;67.70;;;;;;1817673;76;21561;-82
2022/01/16 04:10:26;;;;;;;16.12;11.57;;;27.40;67.20;;;;;;1860021;75;21229;-83
2022/01/16 04:12:57;;;;;;;20.20;11.95;;;27.60;67.40;;;;;;1856387;76;21147;-84
2022/01/16 04:15:34;;;;;;;16.10;11.57;;;27.70;67.40;;;;;;1898071;75;21096;-83
2022/01/16 04:18:01;;;;;;;17.27;11.50;;;27.80;66.70;;;;;;1894545;75;21085;-83
2022/01/16 04:20:33;;;;;;;18.82;10.63;;;27.80;66.60;;;;;;1899334;75;21210;-83
2022/01/16 04:23:06;;;;;;;15.20;10.43;;;27.90;66.10;;;;;;1902278;74;21138;-86
2022/01/16 04:25:37;;;;;;;18.48;11.55;;;28.00;65.50;;;;;;1897223;75;21155;-73
2022/01/16 04:28:08;;;;;;;19.37;11.25;;;28.10;65.40;;;;;;1904649;75;21159;-73
2022/01/16 04:30:39;;;;;;;16.12;10.72;;;28.20;65.40;;;;;;1910909;75;21213;-72
2022/01/16 04:33:10;;;;;;;18.25;11.12;;;28.30;65.40;;;;;;1904470;74;21076;-72
2022/01/16 04:35:40;;;;;;;21.48;10.98;;;28.30;64.20;;;;;;1896289;75;21125;-74
2022/01/16 04:38:11;;;;;;;17.52;10.55;;;28.50;65.10;;;;;;1904880;74;21131;-73
2022/01/16 04:43:47;;;;;;;14.85;10.32;;;28.50;64.20;;;;;;1910440;73;21541;-72
2022/01/16 04:45:47;;;;;;;22.52;12.55;;;28.70;63.70;;;;;;1908044;74;21191;-73
2022/01/16 04:48:17;;;;;;;20.37;11.88;;;28.80;62.80;;;;;;1909528;74;21082;-72
2022/01/16 04:50:48;;;;;;;19.07;11.50;;;28.90;63.50;;;;;;1911308;73;21081;-72
2022/01/16 04:53:19;;;;;;;17.23;12.00;;;29.10;64.70;;;;;;1904265;75;21134;-72
2022/01/16 04:55:50;;;;;;;21.62;11.15;;;29.20;63.60;;;;;;1905232;74;21646;-73
2022/01/16 04:58:22;;;;;;;18.12;11.15;;;29.20;62.20;;;;;;1892547;75;21237;-73
2022/01/16 05:00:55;;;;;;;14.85;10.65;;;29.30;61.50;;;;;;1903718;75;21528;-73
2022/01/16 05:03:28;;;;;;;15.43;10.48;;;29.30;61.50;;;;;;1899397;75;21077;-73
2022/01/16 05:06:00;;;;;;;18.45;11.22;;;29.40;61.00;;;;;;1903035;74;21177;-73
2022/01/16 05:08:32;;;;;;;15.40;11.10;;;29.50;60.80;;;;;;1893337;75;21572;-73
2022/01/16 05:11:05;;;;;;;16.62;12.10;;;29.60;59.40;;;;;;1867923;75;21826;-73
2022/01/16 05:18:43;;;;;;;20.70;11.30;;;29.70;59.50;;;;;;1893192;75;21603;-72
2022/01/16 05:21:14;;;;;;;14.18;10.90;;;29.80;60.00;;;;;;1892711;75;21177;-75
2022/01/16 05:23:45;;;;;;;17.12;10.40;;;29.80;58.90;;;;;;1891755;75;21144;-74
2022/01/16 05:26:18;;;;;;;15.68;9.80;;;29.80;58.80;;;;;;1894185;75;21165;-83
2022/01/16 05:28:49;;;;;;;15.10;10.08;;;29.80;59.10;;;;;;1898429;75;21201;-84
2022/01/16 05:31:19;;;;;;;13.28;9.73;;;29.90;60.40;;;;;;1893936;75;22049;-85
2022/01/16 05:33:50;;;;;;;18.98;10.18;;;30.00;59.40;;;;;;1878012;76;21096;-84
2022/01/16 05:36:22;;;;;;;17.17;10.48;;;30.00;58.60;;;;;;1891914;75;21558;-85
2022/01/16 05:38:53;;;;;;;17.52;9.60;;;30.10;58.70;;;;;;1899569;75;21634;-84
2022/01/16 05:41:23;;;;;;;12.93;9.50;;;30.10;58.60;;;;;;1901415;75;21111;-84
2022/01/16 05:43:54;;;;;;;13.25;9.20;;;30.20;57.00;;;;;;1895216;75;21619;-84
2022/01/16 05:46:25;;;;;;;16.48;9.00;;;30.30;55.80;;;;;;1898221;74;21159;-85
2022/01/16 05:48:56;;;;;;;14.80;8.88;;;30.40;54.70;;;;;;1903693;74;21120;-84
2022/01/16 05:51:27;;;;;;;14.00;9.45;;;30.50;55.40;;;;;;1904101;74;21211;-85
2022/01/16 05:53:57;;;;;;;12.13;9.43;;;30.50;55.20;;;;;;1866592;76;21073;-84
2022/01/16 05:56:28;;;;;;;12.28;7.58;;;30.60;58.80;;;;;;1900923;74;21182;-85
2022/01/16 05:58:58;;;;;;;10.98;7.55;;;30.80;53.50;;;;;;1904918;74;21179;-84
2022/01/16 06:01:30;;;;;;;16.15;9.35;;;30.80;52.30;;;;;;1908169;74;21116;-85
2022/01/16 06:04:00;;;;;;;10.48;8.08;;;30.80;53.50;;;;;;1906407;74;21067;-84
2022/01/16 06:06:31;;;;;;;11.97;8.90;;;30.90;51.50;;;;;;1907041;74;21250;-84
2022/01/16 06:09:02;;;;;;;13.35;9.10;;;30.90;51.00;;;;;;1904128;74;21089;-85
2022/01/16 06:11:33;;;;;;;17.95;9.50;;;30.90;49.80;;;;;;1905285;74;21187;-84
2022/01/16 06:14:03;;;;;;;11.05;8.30;;;30.90;51.10;;;;;;1907708;74;21217;-85
2022/01/16 06:16:35;;;;;;;15.68;7.90;;;30.90;52.40;;;;;;1906671;74;21116;-84
2022/01/16 06:19:06;;;;;;;11.28;7.47;;;30.90;52.40;;;;;;1902309;74;21127;-85
2022/01/16 06:21:36;;;;;;;10.58;7.22;;;30.90;51.50;;;;;;1902178;74;21100;-83
2022/01/16 06:24:07;;;;;;;9.60;6.53;;;30.90;51.30;;;;;;1913876;74;21077;-85
2022/01/16 06:26:38;;;;;;;10.18;6.80;;;30.90;52.80;;;;;;1910583;74;21073;-84
2022/01/16 06:29:09;;;;;;;11.20;7.92;;;31.00;51.40;;;;;;1909895;74;21583;-85
2022/01/16 06:31:40;;;;;;;11.53;7.97;;;31.00;50.80;;;;;;1907374;74;21120;-84
2022/01/16 06:34:11;;;;;;;10.45;8.08;;;31.00;51.10;;;;;;1908175;74;21917;-85
2022/01/16 06:36:42;;;;;;;11.90;8.65;;;31.00;51.80;;;;;;1901416;74;21504;-84
2022/01/16 06:39:14;;;;;;;10.88;8.28;;;31.00;50.80;;;;;;1902722;74;21136;-84
2022/01/16 06:41:44;;;;;;;11.53;8.33;;;31.00;50.20;;;;;;1905234;74;21131;-85
2022/01/16 06:44:17;;;;;;;12.50;8.33;;;31.00;51.30;;;;;;1903238;74;21178;-86
2022/01/16 06:46:47;;;;;;;11.22;8.00;;;31.00;50.10;;;;;;1909341;74;21061;-86
2022/01/16 06:49:18;;;;;;;11.68;8.65;;;31.10;49.90;;;;;;1906261;74;21089;-86
2022/01/16 06:51:49;;;;;;;13.32;8.50;;;31.10;49.70;;;;;;1905129;74;21218;-86
2022/01/16 06:54:19;;;;;;;12.18;8.30;;;31.10;50.30;;;;;;1906539;73;21105;-85
2022/01/16 06:56:50;;;;;;;12.53;8.88;;;31.10;49.80;;;;;;1907582;74;21128;-84
2022/01/16 06:59:21;;;;;;;11.15;8.85;;;31.10;49.40;;;;;;1909639;74;21081;-85
2022/01/16 07:01:52;;;;;;;12.68;9.10;;;31.10;48.30;;;;;;1915995;74;21096;-85
2022/01/16 07:04:22;;;;;;;12.33;8.25;;;31.10;48.20;;;;;;1902735;74;21517;-85
2022/01/16 07:06:53;;;;;;;10.15;7.90;;;31.00;47.80;;;;;;1913206;74;21205;-85
2022/01/16 07:09:24;;;;;;;12.35;8.23;;;30.90;49.80;;;;;;1905105;74;21144;-84
2022/01/16 07:11:54;;;;;;;15.10;8.25;;;30.90;49.60;;;;;;1906662;74;21197;-84
2022/01/16 07:14:26;;;;;;;13.28;7.22;;;30.90;49.30;;;;;;1911492;74;21153;-85
2022/01/16 07:16:56;;;;;;;13.58;7.95;;;30.90;48.70;;;;;;1908907;74;21194;-85
2022/01/16 07:19:27;;;;;;;12.25;7.85;;;30.90;49.20;;;;;;1907159;74;21168;-85
2022/01/16 07:21:58;;;;;;;11.08;7.22;;;31.00;49.00;;;;;;1903378;74;21138;-85
2022/01/16 07:24:29;;;;;;;13.60;7.78;;;30.90;48.80;;;;;;1903426;74;21119;-85
2022/01/16 07:27:00;;;;;;;14.83;8.70;;;31.00;48.50;;;;;;1911439;74;21694;-84
2022/01/16 07:29:31;;;;;;;10.45;7.78;;;31.10;48.10;;;;;;1908926;74;21155;-85
2022/01/16 07:32:01;;;;;;;11.97;8.18;;;31.00;47.80;;;;;;1911316;74;21162;-84
2022/01/16 07:34:32;;;;;;;12.88;7.30;;;31.10;47.10;;;;;;1902673;74;21082;-85
2022/01/16 07:37:03;;;;;;;10.85;8.03;;;31.20;48.50;;;;;;1913414;74;21646;-85
2022/01/16 07:39:34;;;;;;;12.20;7.58;;;31.20;48.20;;;;;;1905850;74;21088;-84
2022/01/16 07:42:05;;;;;;;11.57;7.37;;;31.20;47.70;;;;;;1915123;74;21678;-84
2022/01/16 07:44:36;;;;;;;9.53;7.03;;;31.20;48.10;;;;;;1907968;74;21151;-85
2022/01/16 07:47:07;;;;;;;9.90;7.17;;;31.20;48.60;;;;;;1903669;74;21575;-85
2022/01/16 07:49:38;;;;;;;13.05;7.20;;;31.20;47.20;;;;;;1904557;75;21182;-86
2022/01/16 07:52:09;;;;;;;11.80;7.17;;;31.10;47.70;;;;;;1903867;74;21120;-84
2022/01/16 07:54:40;;;;;;;11.60;8.35;;;31.10;47.00;;;;;;1917073;74;21144;-84
2022/01/16 07:57:11;;;;;;;10.72;6.97;;;31.10;47.10;;;;;;1906185;74;21168;-84
2022/01/16 07:59:42;;;;;;;11.80;7.90;;;31.10;47.80;;;;;;1908161;74;21598;-85
2022/01/16 08:02:13;;;;;;;9.20;7.28;;;31.10;48.10;;;;;;1906509;74;21536;-85
2022/01/16 08:04:44;;;;;;;9.15;6.95;;;31.10;47.40;;;;;;1914135;74;21635;-85
2022/01/16 08:07:15;;;;;;;9.73;7.40;;;31.00;46.70;;;;;;1908797;74;21118;-86
2022/01/16 08:09:46;;;;;;;12.47;7.25;;;30.90;47.10;;;;;;1908881;74;21112;-85
2022/01/16 08:12:16;;;;;;;11.03;6.90;;;30.90;47.90;;;;;;1913371;74;21096;-85
2022/01/16 08:14:47;;;;;;;11.40;8.30;;;30.80;47.90;;;;;;1911985;74;21210;-85
2022/01/16 08:17:18;;;;;;;10.30;7.72;;;30.80;46.80;;;;;;1903322;74;21109;-84
2022/01/16 08:19:49;;;;;;;10.60;8.03;;;30.70;47.20;;;;;;1906020;74;21143;-84
2022/01/16 08:22:20;;;;;;;13.58;7.62;;;30.70;47.20;;;;;;1906223;74;21132;-83
2022/01/16 08:24:50;;;;;;;12.10;8.10;;;30.60;47.50;;;;;;1913351;74;21132;-80
2022/01/16 08:27:21;;;;;;;10.63;7.58;;;30.60;48.30;;;;;;1909703;74;21042;-82
2022/01/16 08:29:51;;;;;;;14.93;8.50;;;30.60;48.10;;;;;;1911204;74;21196;-83
2022/01/16 08:32:22;;;;;;;13.28;7.40;;;30.60;47.10;;;;;;1907531;74;21178;-83
2022/01/16 08:34:53;;;;;;;12.58;7.65;;;30.60;48.20;;;;;;1914123;74;21140;-84
2022/01/16 08:37:23;;;;;;;12.00;7.58;;;30.60;47.40;;;;;;1905896;74;21127;-85
2022/01/16 08:39:54;;;;;;;10.10;7.67;;;30.60;47.40;;;;;;1907836;74;21160;-84
2022/01/16 08:42:25;;;;;;;10.38;8.00;;;30.60;47.50;;;;;;1910485;74;21069;-85
2022/01/16 08:44:56;;;;;;;13.80;9.03;;;30.60;47.60;;;;;;1901524;74;21121;-84
2022/01/16 08:47:28;;;;;;;9.10;7.28;;;30.50;47.50;;;;;;1901859;74;21116;-84
2022/01/16 08:49:59;;;;;;;9.05;7.42;;;30.50;47.40;;;;;;1901302;74;21390;-84
2022/01/16 08:52:30;;;;;;;9.93;7.33;;;30.50;46.70;;;;;;1915422;74;21203;-85
2022/01/16 08:55:02;;;;;;;12.23;8.80;;;30.50;46.70;;;;;;1905275;74;21147;-85
2022/01/16 08:57:33;;;;;;;12.60;8.95;;;30.50;47.20;;;;;;1849495;75;21103;-84
2022/01/16 09:00:08;;;;;;;14.33;8.73;;;30.60;47.70;;;;;;1902163;74;21130;-84
2022/01/16 09:02:38;;;;;;;16.75;8.85;;;30.60;46.90;;;;;;1906956;74;21121;-83
2022/01/16 09:05:12;;;;;;;11.45;7.75;;;30.60;47.10;;;;;;1908057;74;21181;-84
2022/01/16 09:07:42;;;;;;;11.45;7.87;;;30.60;46.90;;;;;;1908657;74;21077;-84
2022/01/16 09:10:13;;;;;;;10.85;7.72;;;30.60;47.20;;;;;;1904263;74;21174;-84
2022/01/16 09:12:44;;;;;;;11.45;7.12;;;30.60;47.10;;;;;;1907741;74;21705;-85
2022/01/16 09:15:15;;;;;;;10.95;8.00;;;30.60;46.90;;;;;;1917510;74;21154;-84
2022/01/16 09:17:45;;;;;;;14.05;8.43;;;30.60;48.00;;;;;;1904116;74;21077;-83
2022/01/16 09:20:16;;;;;;;13.45;8.28;;;30.50;46.60;;;;;;1918549;74;21211;-84
2022/01/16 09:22:49;;;;;;;10.50;8.08;;;30.50;46.90;;;;;;1902695;74;21176;-84
2022/01/16 09:25:22;;;;;;;10.80;7.95;;;30.50;46.80;;;;;;1904643;74;21121;-84
2022/01/16 09:27:53;;;;;;;12.30;7.62;;;30.50;46.50;;;;;;1912983;74;21195;-84
2022/01/16 09:30:26;;;;;;;14.55;8.55;;;30.50;47.20;;;;;;1911147;74;21116;-84
2022/01/16 09:32:57;;;;;;;11.43;8.03;;;30.50;46.80;;;;;;1906121;74;21105;-84
2022/01/16 09:35:31;;;;;;;15.70;9.30;;;30.40;47.10;;;;;;1907289;74;21653;-84
2022/01/16 09:38:01;;;;;;;14.58;8.13;;;30.40;47.50;;;;;;1906701;74;21124;-85
2022/01/16 09:40:32;;;;;;;12.07;8.23;;;30.40;47.80;;;;;;1862461;76;21188;-83
2022/01/16 09:43:05;;;;;;;14.85;8.03;;;30.40;47.10;;;;;;1907775;74;21132;-84
2022/01/16 09:45:35;;;;;;;11.60;7.90;;;30.30;47.60;;;;;;1909519;74;21102;-85
2022/01/16 09:48:06;;;;;;;11.75;7.80;;;30.20;47.70;;;;;;1906416;74;21528;-84
2022/01/16 09:50:37;;;;;;;13.20;8.20;;;30.20;47.60;;;;;;1909649;74;21183;-82
2022/01/16 09:53:08;;;;;;;13.03;7.87;;;30.10;47.70;;;;;;1908217;74;21176;-82
2022/01/16 09:55:38;;;;;;;12.23;7.75;;;30.10;47.80;;;;;;1911929;74;21234;-84
2022/01/16 09:58:09;;;;;;;11.15;7.78;;;30.00;48.10;;;;;;1907007;74;21129;-84
2022/01/16 10:00:39;;;;;;;10.25;7.78;;;30.00;48.30;;;;;;1912203;73;21227;-83
2022/01/16 10:03:11;;;;;;;15.45;10.20;;;30.00;48.10;;;;;;1936545;73;21182;-83
2022/01/16 10:05:42;;;;;;;17.12;11.18;;;29.90;48.10;;;;;;1901428;74;21155;-83
2022/01/16 10:08:14;;;;;;;18.15;8.80;;;29.90;48.30;;;;;;1875612;76;21216;-83
2022/01/16 10:10:45;;;;;;;11.00;7.35;;;29.80;48.30;;;;;;1872436;76;21184;-84
2022/01/16 10:13:20;;;;;;;16.60;9.18;;;29.80;47.40;;;;;;1869314;76;21228;-83
2022/01/16 10:15:53;;;;;;;18.85;11.93;;;29.70;47.00;;;;;;1851651;76;21705;-86
2022/01/16 10:18:26;;;;;;;17.60;11.38;;;29.60;47.40;;;;;;1932179;73;21152;-85
2022/01/16 10:20:57;;;;;;;15.78;7.80;;;29.60;48.10;;;;;;1937956;73;21127;-84
2022/01/16 10:23:31;;;;;;;15.78;7.47;;;29.60;47.60;;;;;;1936421;73;21149;-84
2022/01/16 10:26:06;;;;;;;10.20;7.42;;;29.50;47.50;;;;;;1936934;73;21131;-82
2022/01/16 10:28:36;;;;;;;15.23;9.53;;;29.50;47.10;;;;;;1933159;73;21810;-84
2022/01/16 10:31:07;;;;;;;12.13;8.50;;;29.50;47.10;;;;;;1910532;73;21123;-85
2022/01/16 10:33:39;;;;;;;12.35;8.50;;;29.40;47.20;;;;;;1930895;73;21387;-81
2022/01/16 10:36:09;;;;;;;12.10;8.23;;;29.40;47.70;;;;;;1940575;73;21193;-80
2022/01/16 10:38:40;;;;;;;13.90;8.45;;;29.40;47.50;;;;;;1931500;73;21176;-78
2022/01/16 10:41:16;;;;;;;9.55;7.35;;;29.30;47.60;;;;;;1929517;73;21092;-79
2022/01/16 10:43:49;;;;;;;14.55;8.10;;;29.30;47.40;;;;;;1937209;73;21091;-78
2022/01/16 10:46:22;;;;;;;10.70;8.30;;;29.30;47.50;;;;;;1937395;73;21045;-78
2022/01/16 10:48:57;;;;;;;14.40;7.90;;;29.30;47.60;;;;;;1932406;73;21625;-78
2022/01/16 10:51:31;;;;;;;12.98;8.48;;;29.20;48.20;;;;;;1890366;75;21187;-80
2022/01/16 10:54:02;;;;;;;23.57;8.48;;;29.20;48.60;;;;;;1870707;76;21130;-80
2022/01/16 10:56:34;;;;;;;13.10;8.30;;;29.10;48.70;;;;;;1872811;74;21195;-77
2022/01/16 10:59:07;;;;;;;20.77;9.93;;;29.00;48.90;;;;;;1869551;76;21085;-78
2022/01/16 11:01:38;;;;;;;21.35;10.70;;;29.00;49.00;;;;;;1856257;76;21232;-78
2022/01/16 11:04:09;;;;;;;13.90;8.90;;;28.90;49.20;;;;;;1909942;74;21655;-78
2022/01/16 11:06:39;;;;;;;17.48;8.43;;;28.90;49.40;;;;;;1901306;75;21133;-78
2022/01/16 11:09:11;;;;;;;12.25;8.55;;;28.80;49.70;;;;;;1906401;74;21183;-78
2022/01/16 11:11:45;;;;;;;16.55;8.70;;;28.70;50.10;;;;;;1909493;74;21243;-78
2022/01/16 11:14:16;;;;;;;14.75;8.50;;;28.70;50.30;;;;;;1907179;74;21201;-78
2022/01/16 11:16:52;;;;;;;18.32;9.70;;;28.60;50.60;;;;;;1909315;74;21532;-78
2022/01/16 11:19:21;;;;;;;16.65;9.85;;;28.50;50.60;;;;;;1905752;74;21138;-79
2022/01/16 11:21:57;;;;;;;17.20;8.98;;;28.40;50.50;;;;;;1907261;74;21210;-79
2022/01/16 11:26:59;;;;;;;17.07;9.03;;;28.30;51.70;;;;;;1908157;74;21108;-78
2022/01/16 11:29:30;;;;;;;18.52;8.95;;;28.30;51.00;;;;;;1911616;74;21096;-79
2022/01/16 11:32:02;;;;;;;21.05;14.63;;;28.30;51.30;;;;;;1853262;76;21069;-80
2022/01/16 11:34:32;;;;;;;20.30;11.80;;;28.20;51.60;;;;;;1910223;74;21472;-79
2022/01/16 11:37:08;;;;;;;16.77;9.25;;;28.10;51.90;;;;;;1904532;74;21132;-79
2022/01/16 11:39:39;;;;;;;13.62;8.98;;;28.10;52.00;;;;;;1912995;74;21128;-79
2022/01/16 11:42:21;;;;;;;15.03;9.48;;;28.10;52.00;;;;;;1907106;74;21179;-82
2022/01/16 11:44:47;;;;;;;16.32;9.63;;;28.10;52.20;;;;;;1905521;74;21126;-79
2022/01/16 11:47:21;;;;;;;14.87;8.33;;;28.00;52.30;;;;;;1907693;74;21516;-78
2022/01/16 11:49:51;;;;;;;14.00;8.75;;;27.90;52.50;;;;;;1903811;74;21122;-78
2022/01/16 11:52:22;;;;;;;18.50;9.40;;;27.80;52.80;;;;;;1902516;74;21211;-78
2022/01/16 11:54:55;;;;;;;15.32;9.45;;;27.80;53.20;;;;;;1903025;74;21199;-79
2022/01/16 11:57:28;;;;;;;17.62;9.23;;;27.70;53.20;;;;;;1903713;74;21189;-79
2022/01/16 12:00:01;;;;;;;14.00;8.83;;;27.70;53.40;;;;;;1913985;74;21053;-79
2022/01/16 12:02:34;;;;;;;14.65;9.63;;;27.70;53.60;;;;;;1904769;73;21108;-79
2022/01/16 12:05:06;;;;;;;16.17;9.55;;;27.60;53.60;;;;;;1903565;74;21132;-77
2022/01/16 12:07:38;;;;;;;21.15;11.30;;;27.60;53.80;;;;;;1902827;74;21145;-77
2022/01/16 12:10:09;;;;;;;18.65;12.43;;;27.60;54.30;;;;;;1910824;74;21896;-78
2022/01/16 12:12:39;;;;;;;22.13;12.80;;;27.60;54.40;;;;;;1845374;76;21580;-78
2022/01/16 12:15:12;;;;;;;25.37;14.43;;;27.70;54.50;;;;;;1902548;74;21132;-78
2022/01/16 12:17:47;;;;;;;27.07;18.02;;;27.70;54.50;;;;;;1902675;74;21124;-78
2022/01/16 12:20:25;;;;;;;36.75;15.43;;;27.70;54.50;;;;;;1912080;74;22424;-79
2022/01/16 12:22:48;;;;;;;23.70;15.05;;;27.70;54.40;;;;;;1908690;74;21104;-78
2022/01/16 12:25:23;;;;;;;25.02;15.28;;;27.80;54.50;;;;;;1898541;74;21104;-78
2022/01/16 12:27:54;;;;;;;25.77;15.35;;;27.80;54.60;;;;;;1905434;74;21057;-77
2022/01/16 12:30:32;;;;;;;21.62;15.10;;;27.80;54.60;;;;;;1900581;74;21159;-78
2022/01/16 12:33:08;;;;;;;18.67;13.78;;;27.80;54.60;;;;;;1900400;74;21134;-78
2022/01/16 12:35:37;;;;;;;24.65;15.18;;;27.80;54.50;;;;;;1906594;74;21150;-77
2022/01/16 12:38:10;;;;;;;23.50;14.95;;;27.80;54.70;;;;;;1907255;74;21592;-77
2022/01/16 12:40:44;;;;;;;26.25;15.60;;;27.80;54.70;;;;;;1908052;74;21140;-78
2022/01/16 12:43:17;;;;;;;21.60;15.48;;;27.80;54.90;;;;;;1903965;74;21590;-78
2022/01/16 12:45:48;;;;;;;26.82;15.28;;;27.80;54.90;;;;;;1910574;74;21168;-77
2022/01/16 12:48:19;;;;;;;21.27;15.13;;;27.80;55.00;;;;;;1911424;73;21792;-77
2022/01/16 12:50:51;;;;;;;26.87;16.32;;;27.70;55.10;;;;;;1903992;74;21595;-80
2022/01/16 12:53:24;;;;;;;18.42;14.20;;;27.80;55.30;;;;;;1913312;74;21683;-82
2022/01/16 12:56:01;;;;;;;21.23;15.70;;;27.70;55.10;;;;;;1896597;74;21729;-84
2022/01/16 12:58:33;;;;;;;22.13;15.28;;;27.70;55.30;;;;;;1877317;74;21136;-83
2022/01/16 13:01:05;;;;;;;25.90;15.83;;;27.70;55.40;;;;;;1900467;74;21197;-83
2022/01/16 13:03:37;;;;;;;23.27;16.00;;;27.70;55.70;;;;;;1902186;74;21694;-83
2022/01/16 13:06:10;;;;;;;25.15;17.05;;;27.70;55.70;;;;;;1914379;74;21186;-82
2022/01/16 13:08:43;;;;;;;22.05;15.68;;;27.70;55.90;;;;;;1896943;74;21218;-82
2022/01/16 13:11:15;;;;;;;26.25;17.32;;;27.70;56.00;;;;;;1899174;74;21193;-82
2022/01/16 13:13:47;;;;;;;22.32;15.15;;;27.70;56.20;;;;;;1916579;74;21132;-83
2022/01/16 13:16:19;;;;;;;21.73;14.45;;;27.70;56.20;;;;;;1907240;74;21116;-82
2022/01/16 13:18:52;;;;;;;23.52;14.18;;;27.70;56.20;;;;;;1903368;74;21645;-82
2022/01/16 13:21:31;;;;;;;24.37;15.93;;;27.60;56.20;;;;;;1906219;74;21548;-84
2022/01/16 13:23:54;;;;;;;24.82;14.95;;;27.60;56.40;;;;;;1908528;74;21120;-83
2022/01/16 13:26:27;;;;;;;25.85;14.83;;;27.60;56.70;;;;;;1909321;74;21141;-83
2022/01/16 13:29:00;;;;;;;26.77;15.30;;;27.50;56.70;;;;;;1916381;74;21199;-83
2022/01/16 13:31:37;;;;;;;21.15;16.25;;;27.50;56.90;;;;;;1906577;74;21130;-83
2022/01/16 13:34:08;;;;;;;25.52;17.62;;;27.50;56.90;;;;;;1906070;74;21151;-83